Time;durP1;ratioP1;P1;durP2;ratioP2;P2;SDS_P1;SDS_P2;PMS_P1;PMS_P2;Temp;Humidity;BMP_temperature;BMP_pressure;BME280_temperature;BME280_humidity;BME280_pressure;Samples;Min_cycle;Max_cycle;Signal;HPM_P1;HPM_P2
2022/07/30 00:00:15;;;;;;;3.70;3.08;;;21.60;53.20;;;;;;5047935;28;20041;-45
2022/07/30 00:02:50;;;;;;;4.10;3.08;;;21.60;53.40;;;;;;5047971;28;20086;-46
2022/07/30 00:05:17;;;;;;;4.10;3.35;;;21.60;53.50;;;;;;5044074;28;20045;-51
2022/07/30 00:07:44;;;;;;;4.03;2.70;;;21.50;53.50;;;;;;5039216;28;20045;-46
2022/07/30 00:10:10;;;;;;;10.40;4.75;;;21.50;53.70;;;;;;5037035;28;20096;-46
2022/07/30 00:12:38;;;;;;;3.40;3.08;;;21.40;53.70;;;;;;5043790;28;20126;-47
2022/07/30 00:15:07;;;;;;;4.13;3.30;;;21.40;53.60;;;;;;5052153;28;20539;-46
2022/07/30 00:17:33;;;;;;;3.35;3.03;;;21.30;53.80;;;;;;5033937;28;20067;-47
2022/07/30 00:20:01;;;;;;;4.28;3.95;;;21.30;54.00;;;;;;5040922;28;20099;-48
2022/07/30 00:22:31;;;;;;;4.43;3.17;;;21.30;54.00;;;;;;5051736;28;20053;-49
2022/07/30 00:25:00;;;;;;;3.72;3.42;;;21.20;54.10;;;;;;5042878;28;20042;-45
2022/07/30 00:27:30;;;;;;;3.20;2.78;;;21.30;54.20;;;;;;5035905;28;20037;-50
2022/07/30 00:29:56;;;;;;;4.32;3.50;;;21.20;54.40;;;;;;5042974;28;20075;-50
2022/07/30 00:32:23;;;;;;;4.28;3.88;;;21.20;53.90;;;;;;5025512;28;20045;-49
2022/07/30 00:34:50;;;;;;;4.47;3.70;;;21.20;54.10;;;;;;5051241;28;20037;-45
2022/07/30 00:37:17;;;;;;;4.80;4.00;;;21.20;54.20;;;;;;5026618;28;20041;-45
2022/07/30 00:39:46;;;;;;;5.47;3.92;;;21.20;54.00;;;;;;5042882;28;20614;-50
2022/07/30 00:42:15;;;;;;;4.88;4.38;;;21.20;54.00;;;;;;5032991;28;20052;-46
2022/07/30 00:44:43;;;;;;;5.88;4.10;;;21.20;53.90;;;;;;5015600;28;20536;-45
2022/07/30 00:47:10;;;;;;;4.05;3.58;;;21.20;53.90;;;;;;5025807;28;20099;-50
2022/07/30 00:49:37;;;;;;;4.72;4.07;;;21.20;54.30;;;;;;5039543;28;20047;-46
2022/07/30 00:52:09;;;;;;;;;;;21.20;54.40;;;;;;5050697;28;20062;-49
2022/07/30 00:54:36;;;;;;;4.28;3.88;;;21.30;53.60;;;;;;5036136;28;19921;-45
2022/07/30 00:57:03;;;;;;;5.10;4.35;;;21.30;53.60;;;;;;5042950;28;20052;-45
2022/07/30 00:59:35;;;;;;;4.60;4.20;;;21.30;53.70;;;;;;5050969;28;20045;-49
2022/07/30 01:02:02;;;;;;;6.57;4.80;;;21.30;53.90;;;;;;5051518;28;20052;-46
2022/07/30 01:04:29;;;;;;;5.03;4.38;;;21.30;54.00;;;;;;5016511;28;20049;-47
2022/07/30 01:06:56;;;;;;;5.60;4.78;;;21.30;54.10;;;;;;5032831;28;20092;-46
2022/07/30 01:09:26;;;;;;;6.60;4.72;;;21.30;54.10;;;;;;5036045;28;20047;-50
2022/07/30 01:11:52;;;;;;;5.32;4.82;;;21.30;54.30;;;;;;5042599;28;20059;-47
2022/07/30 01:14:19;;;;;;;6.35;4.68;;;21.30;54.20;;;;;;5031774;28;20513;-50
2022/07/30 01:16:46;;;;;;;5.65;4.82;;;21.30;54.40;;;;;;5018968;28;20045;-50
2022/07/30 01:22:29;;;;;;;8.77;4.82;;;21.30;55.00;;;;;;5028351;28;20045;-50
2022/07/30 01:25:26;;;;;;;6.13;4.25;;;21.30;55.00;;;;;;5033880;28;20041;-46
2022/07/30 01:27:57;;;;;;;6.82;5.00;;;21.20;54.90;;;;;;5041695;28;20124;-46
2022/07/30 01:30:28;;;;;;;5.00;4.43;;;21.20;54.70;;;;;;5032079;28;20044;-46
2022/07/30 01:33:02;;;;;;;5.80;4.55;;;21.20;55.00;;;;;;5003583;28;20038;-49
2022/07/30 01:35:31;;;;;;;6.15;4.93;;;21.20;55.00;;;;;;5024462;28;20044;-47
2022/07/30 01:37:59;;;;;;;6.38;4.97;;;21.20;55.00;;;;;;5029208;28;20037;-50
2022/07/30 01:40:27;;;;;;;7.35;5.63;;;21.20;55.20;;;;;;5021797;28;20045;-49
2022/07/30 01:42:58;;;;;;;6.85;4.88;;;21.10;55.10;;;;;;5017987;28;20517;-46
2022/07/30 01:45:28;;;;;;;5.45;4.60;;;21.10;55.30;;;;;;5023999;28;20057;-48
2022/07/30 01:47:59;;;;;;;5.68;4.95;;;21.20;55.60;;;;;;5036788;28;20061;-46
2022/07/30 01:50:27;;;;;;;7.97;4.95;;;21.10;55.50;;;;;;5029485;28;20038;-46
2022/07/30 01:53:01;;;;;;;6.32;5.18;;;21.10;55.50;;;;;;5008381;28;20091;-46
2022/07/30 01:55:39;;;;;;;5.55;4.93;;;21.10;55.40;;;;;;5041471;28;20037;-46
2022/07/30 01:58:11;;;;;;;5.13;4.63;;;21.10;55.90;;;;;;5049545;28;20102;-48
2022/07/30 02:00:50;;;;;;;7.15;4.82;;;21.00;55.60;;;;;;5021221;28;20046;-46
2022/07/30 02:03:21;;;;;;;8.43;5.00;;;21.00;55.90;;;;;;5017272;28;20087;-47
2022/07/30 02:05:55;;;;;;;7.45;5.38;;;21.00;55.70;;;;;;5042361;28;20080;-46
2022/07/30 02:08:45;;;;;;;7.63;5.53;;;21.00;55.90;;;;;;5048518;28;20045;-49
2022/07/30 02:14:10;;;;;;;5.22;4.55;;;20.90;55.80;;;;;;5023823;28;20401;-46
2022/07/30 02:16:43;;;;;;;5.85;5.25;;;20.90;56.00;;;;;;5032483;28;20592;-47
2022/07/30 02:19:14;;;;;;;5.78;5.22;;;20.80;56.10;;;;;;5013741;28;20080;-48
2022/07/30 02:21:47;;;;;;;7.13;5.38;;;20.80;56.20;;;;;;5038845;28;20033;-49
2022/07/30 02:24:22;;;;;;;5.88;5.35;;;20.70;56.30;;;;;;5023279;28;20045;-48
2022/07/30 02:26:54;;;;;;;5.40;4.90;;;20.70;56.40;;;;;;5050280;28;20041;-47
2022/07/30 02:29:26;;;;;;;8.60;4.75;;;20.70;56.20;;;;;;5009909;28;20037;-51
2022/07/30 02:31:56;;;;;;;8.18;5.20;;;20.60;56.20;;;;;;5021140;28;20052;-47
2022/07/30 02:34:27;;;;;;;5.80;4.93;;;20.60;56.50;;;;;;4992535;28;20042;-45
2022/07/30 02:36:57;;;;;;;4.97;4.47;;;20.50;56.40;;;;;;5001690;28;20169;-46
2022/07/30 02:39:26;;;;;;;5.45;4.95;;;20.50;56.30;;;;;;5033453;28;20051;-46
2022/07/30 02:41:55;;;;;;;7.25;5.70;;;20.50;56.70;;;;;;5020549;28;20033;-46
2022/07/30 02:44:27;;;;;;;7.28;5.57;;;20.40;56.80;;;;;;4992380;28;20046;-45
2022/07/30 02:46:56;;;;;;;5.78;4.75;;;20.40;57.10;;;;;;4993872;28;20050;-49
2022/07/30 02:49:34;;;;;;;7.82;5.85;;;20.30;57.10;;;;;;5032010;28;20049;-50
2022/07/30 02:52:07;;;;;;;7.07;6.10;;;20.30;57.40;;;;;;5014691;28;20055;-46
2022/07/30 02:54:37;;;;;;;8.23;6.45;;;20.30;57.60;;;;;;5009805;28;20042;-48
2022/07/30 02:57:12;;;;;;;8.52;6.95;;;20.20;57.60;;;;;;5015938;28;20049;-45
2022/07/30 02:59:44;;;;;;;6.55;5.75;;;20.30;57.70;;;;;;5014214;28;20536;-49
2022/07/30 03:02:12;;;;;;;8.25;6.35;;;20.20;57.70;;;;;;5021624;28;20133;-51
2022/07/30 03:04:42;;;;;;;6.32;5.82;;;20.20;58.00;;;;;;5011076;28;20456;-45
2022/07/30 03:07:09;;;;;;;8.40;5.93;;;20.10;58.10;;;;;;5021023;28;20587;-47
2022/07/30 03:09:42;;;;;;;7.40;6.65;;;20.10;58.20;;;;;;5014322;28;20099;-46
2022/07/30 03:12:22;;;;;;;9.32;6.85;;;20.20;58.50;;;;;;5009590;28;20096;-48
2022/07/30 03:14:52;;;;;;;6.55;5.35;;;20.10;58.90;;;;;;5012424;28;20449;-48
2022/07/30 03:17:26;;;;;;;6.90;5.78;;;20.10;58.60;;;;;;5009639;28;20111;-50
2022/07/30 03:19:55;;;;;;;5.60;4.93;;;20.10;58.90;;;;;;5019126;28;20049;-46
2022/07/30 03:22:25;;;;;;;7.85;5.65;;;20.10;58.80;;;;;;5008611;28;20100;-46
2022/07/30 03:25:05;;;;;;;7.13;5.15;;;20.10;59.10;;;;;;4990665;28;20042;-46
2022/07/30 03:27:36;;;;;;;7.38;6.30;;;20.10;59.20;;;;;;5021096;28;20474;-46
2022/07/30 03:30:08;;;;;;;7.25;6.22;;;20.10;59.20;;;;;;5018855;28;20041;-46
2022/07/30 03:32:38;;;;;;;6.90;5.50;;;20.10;59.40;;;;;;5030642;28;20048;-50
2022/07/30 03:35:14;;;;;;;8.95;5.15;;;20.10;59.60;;;;;;5029276;28;20436;-46
2022/07/30 03:37:48;;;;;;;8.30;5.82;;;20.10;59.40;;;;;;5024775;28;20531;-47
2022/07/30 03:40:16;;;;;;;6.43;5.72;;;20.10;59.40;;;;;;5012568;28;20046;-45
2022/07/30 03:42:47;;;;;;;9.60;5.85;;;20.20;59.60;;;;;;4993632;28;20099;-48
2022/07/30 03:45:18;;;;;;;7.07;5.97;;;20.10;59.60;;;;;;5023212;28;20045;-45
2022/07/30 03:47:48;;;;;;;11.02;6.35;;;20.10;59.70;;;;;;5023994;28;20037;-45
2022/07/30 03:50:15;;;;;;;9.65;6.38;;;20.10;59.90;;;;;;5049786;28;20033;-50
2022/07/30 03:52:45;;;;;;;9.23;6.15;;;20.20;60.10;;;;;;5009950;28;20042;-49
2022/07/30 03:55:16;;;;;;;9.35;6.15;;;20.20;60.50;;;;;;5024406;28;20573;-49
2022/07/30 03:58:05;;;;;;;9.10;6.28;;;20.20;60.30;;;;;;5044260;28;20052;-45
2022/07/30 04:00:38;;;;;;;8.52;6.07;;;20.20;60.50;;;;;;5034884;28;20049;-52
2022/07/30 04:03:05;;;;;;;9.17;6.60;;;20.30;61.60;;;;;;5038212;28;20037;-49
2022/07/30 04:05:45;;;;;;;7.60;6.53;;;20.30;60.60;;;;;;5023664;28;20067;-49
2022/07/30 04:08:15;;;;;;;10.35;6.25;;;20.40;60.70;;;;;;5026707;28;20424;-48
2022/07/30 04:10:47;;;;;;;7.65;6.53;;;20.40;61.10;;;;;;5035244;28;20037;-49
2022/07/30 04:13:34;;;;;;;15.63;7.25;;;20.40;61.20;;;;;;5037267;28;20119;-49
2022/07/30 04:16:22;;;;;;;12.35;7.63;;;20.40;61.40;;;;;;5024766;28;20042;-46
2022/07/30 04:19:24;;;;;;;9.70;7.40;;;20.50;62.50;;;;;;5034434;28;20417;-50
2022/07/30 04:21:54;;;;;;;11.70;7.97;;;20.50;62.40;;;;;;5021630;28;20046;-46
2022/07/30 04:24:23;;;;;;;17.45;9.98;;;20.50;61.90;;;;;;5011564;28;20216;-46
2022/07/30 04:26:51;;;;;;;14.88;8.57;;;20.60;62.20;;;;;;5026395;28;20048;-47
2022/07/30 04:29:19;;;;;;;10.82;9.10;;;20.60;62.30;;;;;;5034149;28;20037;-45
2022/07/30 04:31:53;;;;;;;11.32;8.32;;;20.60;62.40;;;;;;5006261;28;20137;-45
2022/07/30 04:34:34;;;;;;;15.20;8.52;;;20.60;62.60;;;;;;5034219;28;20040;-48
2022/07/30 04:37:05;;;;;;;16.45;8.98;;;20.60;62.60;;;;;;5032347;28;20130;-46
2022/07/30 04:39:32;;;;;;;15.75;9.15;;;20.70;62.60;;;;;;5034154;28;20041;-51
2022/07/30 04:41:59;;;;;;;15.07;9.80;;;20.70;62.80;;;;;;5010724;28;20495;-47
2022/07/30 04:44:34;;;;;;;12.95;8.45;;;20.70;63.60;;;;;;5016575;28;20065;-49
2022/07/30 04:47:36;;;;;;;17.73;8.95;;;20.70;62.80;;;;;;4995910;28;20568;-49
2022/07/30 04:50:28;;;;;;;14.68;9.27;;;20.80;62.70;;;;;;5013622;28;20041;-45
2022/07/30 04:52:57;;;;;;;12.25;8.73;;;20.80;62.80;;;;;;5025652;28;20037;-48
2022/07/30 04:55:31;;;;;;;19.92;9.60;;;20.80;62.80;;;;;;5033587;28;20037;-48
2022/07/30 04:58:01;;;;;;;17.85;9.05;;;20.80;63.30;;;;;;5022741;28;20062;-46
2022/07/30 05:00:44;;;;;;;13.10;7.88;;;20.80;63.00;;;;;;5023291;28;20079;-46
2022/07/30 05:03:15;;;;;;;14.65;9.57;;;20.80;63.60;;;;;;5024936;28;20045;-51
2022/07/30 05:05:49;;;;;;;16.38;9.82;;;20.80;63.10;;;;;;5034080;28;20044;-49
2022/07/30 05:08:24;;;;;;;19.33;10.15;;;20.80;63.20;;;;;;5031030;28;20037;-45
2022/07/30 05:10:54;;;;;;;13.80;9.15;;;20.80;63.40;;;;;;5027935;28;20041;-47
2022/07/30 05:13:23;;;;;;;17.23;10.27;;;20.90;63.70;;;;;;5017646;28;20468;-46
2022/07/30 05:16:03;;;;;;;13.23;9.40;;;20.90;63.40;;;;;;5034088;28;20107;-45
2022/07/30 05:18:30;;;;;;;15.27;10.00;;;20.90;63.60;;;;;;5017447;28;20094;-46
2022/07/30 05:20:57;;;;;;;13.85;9.75;;;20.90;63.40;;;;;;5067892;22;20049;-48
2022/07/30 05:23:28;;;;;;;16.77;9.50;;;20.90;63.40;;;;;;5009478;28;20568;-45
2022/07/30 05:26:04;;;;;;;14.90;8.38;;;20.90;63.50;;;;;;5030274;28;20041;-45
2022/07/30 05:28:42;;;;;;;14.57;10.75;;;20.90;63.50;;;;;;5017441;28;20063;-44
2022/07/30 05:31:14;;;;;;;15.35;9.80;;;21.00;63.60;;;;;;5040920;28;20129;-45
2022/07/30 05:33:49;;;;;;;12.82;9.20;;;21.00;63.60;;;;;;5032728;28;20055;-44
2022/07/30 05:36:18;;;;;;;15.05;9.93;;;21.00;63.60;;;;;;5025232;28;20521;-44
2022/07/30 05:38:45;;;;;;;14.10;9.85;;;21.00;63.70;;;;;;5041510;28;20064;-45
2022/07/30 05:41:26;;;;;;;14.25;8.82;;;21.00;63.70;;;;;;5035840;28;20055;-45
2022/07/30 05:44:16;;;;;;;11.52;9.15;;;21.10;63.60;;;;;;5032840;28;20167;-44
2022/07/30 05:46:49;;;;;;;14.00;9.45;;;21.10;63.40;;;;;;5008563;28;20042;-45
2022/07/30 05:49:16;;;;;;;14.73;9.90;;;21.10;63.50;;;;;;5020761;28;20041;-45
2022/07/30 05:51:45;;;;;;;12.88;10.13;;;21.10;63.60;;;;;;5012189;28;20041;-44
2022/07/30 05:54:12;;;;;;;17.35;9.98;;;21.10;63.60;;;;;;5036046;28;20049;-46
2022/07/30 05:57:02;;;;;;;13.35;9.65;;;21.10;63.70;;;;;;5037243;28;20099;-43
2022/07/30 05:59:31;;;;;;;15.43;10.25;;;21.10;63.70;;;;;;5025871;28;20045;-43
2022/07/30 06:02:16;;;;;;;12.77;9.30;;;21.10;63.80;;;;;;5044526;28;20773;-44
2022/07/30 06:05:06;;;;;;;15.43;10.10;;;21.10;63.80;;;;;;5011360;28;20061;-45
2022/07/30 06:07:33;;;;;;;11.10;9.52;;;21.20;63.90;;;;;;5025935;28;20473;-44
2022/07/30 06:10:05;;;;;;;14.20;9.70;;;21.20;63.40;;;;;;5020249;28;20141;-44
2022/07/30 06:12:35;;;;;;;11.95;9.75;;;21.20;63.70;;;;;;5034826;28;20699;-44
2022/07/30 06:15:04;;;;;;;14.75;10.02;;;21.20;63.60;;;;;;5022977;28;20643;-46
2022/07/30 06:17:41;;;;;;;11.70;9.52;;;21.30;63.60;;;;;;5010199;28;20049;-44
2022/07/30 06:20:20;;;;;;;13.70;9.88;;;21.30;63.70;;;;;;5020885;28;20448;-44
2022/07/30 06:23:12;;;;;;;12.77;9.00;;;21.40;63.70;;;;;;5014769;28;20049;-44
2022/07/30 06:25:58;;;;;;;10.00;8.40;;;21.40;63.20;;;;;;5021130;28;20051;-43
2022/07/30 06:28:24;;;;;;;15.18;10.60;;;21.40;63.10;;;;;;5022438;28;20559;-44
2022/07/30 06:31:10;;;;;;;10.65;9.00;;;21.50;63.30;;;;;;5019272;28;20142;-44
2022/07/30 06:33:37;;;;;;;10.02;9.02;;;21.40;63.20;;;;;;5012937;28;20037;-45
2022/07/30 06:36:04;;;;;;;10.45;8.93;;;21.50;62.80;;;;;;4991597;28;20601;-44
2022/07/30 06:38:43;;;;;;;10.57;8.73;;;21.50;62.80;;;;;;5006775;28;20041;-46
2022/07/30 06:41:14;;;;;;;11.52;8.52;;;21.60;62.90;;;;;;5006463;28;20076;-47
2022/07/30 06:43:51;;;;;;;12.55;8.68;;;21.60;63.10;;;;;;5005804;28;20042;-46
2022/07/30 06:46:39;;;;;;;9.25;8.27;;;21.60;62.90;;;;;;5019796;28;20052;-48
2022/07/30 06:49:07;;;;;;;9.30;8.13;;;21.70;62.70;;;;;;5018003;28;20045;-44
2022/07/30 06:51:34;;;;;;;12.27;9.07;;;21.80;62.50;;;;;;5021654;28;20040;-47
2022/07/30 06:54:01;;;;;;;12.00;9.65;;;21.80;62.10;;;;;;5040876;28;20037;-46
2022/07/30 06:56:46;;;;;;;11.65;8.80;;;21.80;61.80;;;;;;5031797;28;20579;-47
2022/07/30 06:59:13;;;;;;;13.35;9.38;;;21.90;61.30;;;;;;5021984;28;20140;-46
2022/07/30 07:01:59;;;;;;;14.48;8.45;;;21.90;61.20;;;;;;5029431;28;20528;-50
2022/07/30 07:04:26;;;;;;;9.68;8.65;;;21.90;61.20;;;;;;5013593;28;20531;-45
2022/07/30 07:06:52;;;;;;;9.52;8.57;;;22.00;61.20;;;;;;5021653;28;20049;-48
2022/07/30 07:09:27;;;;;;;10.27;8.60;;;22.00;60.80;;;;;;5030547;28;20531;-49
2022/07/30 07:12:12;;;;;;;10.27;8.15;;;22.00;60.70;;;;;;5010604;28;20640;-47
2022/07/30 07:14:43;;;;;;;8.85;8.07;;;22.00;60.60;;;;;;5028769;28;20128;-47
2022/07/30 07:17:10;;;;;;;10.10;8.20;;;22.00;60.50;;;;;;5016544;28;20413;-45
2022/07/30 07:19:55;;;;;;;8.65;7.75;;;22.00;60.80;;;;;;5025232;28;20053;-46
2022/07/30 07:22:29;;;;;;;9.20;8.25;;;22.10;60.90;;;;;;5027233;28;20080;-45
2022/07/30 07:24:58;;;;;;;9.32;7.25;;;22.10;60.90;;;;;;5046847;28;20670;-46
2022/07/30 07:27:34;;;;;;;11.70;9.35;;;22.10;60.70;;;;;;5020878;28;20046;-49
2022/07/30 07:30:06;;;;;;;8.98;6.78;;;22.20;60.40;;;;;;5030623;28;20048;-46
2022/07/30 07:32:42;;;;;;;12.75;8.23;;;22.20;60.20;;;;;;5029731;28;20103;-44
2022/07/30 07:35:12;;;;;;;9.60;8.05;;;22.20;60.20;;;;;;5018470;28;20092;-47
2022/07/30 07:37:44;;;;;;;9.15;7.47;;;22.30;60.10;;;;;;5023471;28;20041;-46
2022/07/30 07:40:18;;;;;;;11.85;7.35;;;22.30;60.10;;;;;;5039732;28;20521;-47
2022/07/30 07:42:48;;;;;;;8.55;7.72;;;22.40;59.30;;;;;;5026600;28;20607;-45
2022/07/30 07:45:17;;;;;;;8.90;6.65;;;22.50;59.10;;;;;;5036036;28;20045;-45
2022/07/30 07:48:06;;;;;;;8.48;6.47;;;22.50;58.70;;;;;;5016280;28;20081;-45
2022/07/30 07:50:53;;;;;;;9.57;7.60;;;22.50;58.20;;;;;;5026571;28;20627;-44
2022/07/30 07:53:30;;;;;;;8.52;7.72;;;22.60;58.50;;;;;;5034541;28;20041;-45
2022/07/30 07:55:58;;;;;;;8.05;7.10;;;22.50;58.00;;;;;;5038974;28;20046;-45
2022/07/30 07:58:28;;;;;;;8.23;7.13;;;22.60;58.20;;;;;;5020939;28;20087;-45
2022/07/30 08:00:59;;;;;;;9.20;7.18;;;22.50;57.80;;;;;;5023618;28;20048;-46
2022/07/30 08:03:57;;;;;;;9.30;7.38;;;22.50;57.70;;;;;;5052069;28;20082;-46
2022/07/30 08:06:42;;;;;;;8.20;7.20;;;22.50;57.80;;;;;;5037361;28;20156;-46
2022/07/30 08:09:28;;;;;;;7.05;6.28;;;22.50;57.80;;;;;;5039830;28;20053;-45
2022/07/30 08:12:42;;;;;;;7.32;6.55;;;22.40;57.70;;;;;;4979375;28;20052;-49
2022/07/30 08:15:28;;;;;;;9.75;6.75;;;22.50;57.30;;;;;;5018511;28;20061;-47
2022/07/30 08:18:11;;;;;;;;;;;22.50;57.50;;;;;;5020275;28;20049;-46
2022/07/30 08:20:46;;;;;;;9.55;7.43;;;22.50;57.20;;;;;;5043370;28;20385;-48
2022/07/30 08:23:21;;;;;;;7.32;6.45;;;22.50;57.30;;;;;;5034190;28;20056;-46
2022/07/30 08:25:50;;;;;;;9.18;6.40;;;22.50;56.90;;;;;;5019506;28;20044;-47
2022/07/30 08:28:17;;;;;;;7.15;6.22;;;22.40;56.80;;;;;;5042427;28;20053;-45
2022/07/30 08:31:02;;;;;;;9.65;7.80;;;22.50;56.70;;;;;;5034609;28;20047;-45
2022/07/30 08:33:32;;;;;;;8.10;6.25;;;22.40;56.00;;;;;;5018691;28;20546;-45
2022/07/30 08:35:59;;;;;;;7.68;6.38;;;22.40;56.60;;;;;;5016382;28;20132;-46
2022/07/30 08:38:40;;;;;;;7.95;5.88;;;22.50;56.80;;;;;;5043182;28;20107;-46
2022/07/30 08:41:08;;;;;;;6.57;5.95;;;22.50;55.90;;;;;;5033642;28;20048;-49
2022/07/30 08:43:49;;;;;;;7.28;6.57;;;22.50;56.10;;;;;;5028696;28;20395;-46
2022/07/30 08:46:23;;;;;;;7.78;6.75;;;22.60;56.20;;;;;;5036256;28;20072;-47
2022/07/30 08:49:06;;;;;;;10.10;7.30;;;22.50;56.00;;;;;;5022493;28;20053;-44
2022/07/30 08:51:41;;;;;;;7.90;7.20;;;22.60;56.10;;;;;;5013145;28;20045;-45
2022/07/30 08:54:35;;;;;;;7.53;6.82;;;22.60;56.30;;;;;;5015989;28;20134;-46
2022/07/30 08:57:10;;;;;;;6.95;6.25;;;22.60;56.20;;;;;;5008951;28;20057;-48
2022/07/30 08:59:40;;;;;;;7.45;6.25;;;22.70;56.10;;;;;;5024847;28;20478;-49
2022/07/30 09:02:30;;;;;;;6.57;5.57;;;22.70;56.00;;;;;;5010594;28;20054;-47
2022/07/30 09:05:01;;;;;;;8.05;7.25;;;22.70;55.20;;;;;;5025643;28;20053;-47
2022/07/30 09:07:28;;;;;;;5.95;4.88;;;22.80;55.40;;;;;;5012677;28;20564;-45
2022/07/30 09:09:55;;;;;;;8.70;5.97;;;22.80;54.40;;;;;;5022001;28;20033;-47
2022/07/30 09:12:43;;;;;;;9.23;5.72;;;22.80;53.80;;;;;;5025749;28;20071;-47
2022/07/30 09:15:22;;;;;;;5.88;5.20;;;22.90;53.90;;;;;;5041946;28;20056;-47
2022/07/30 09:17:54;;;;;;;8.25;6.00;;;22.90;53.80;;;;;;5011075;28;20478;-47
2022/07/30 09:20:26;;;;;;;5.68;5.15;;;22.90;54.00;;;;;;5014485;28;20545;-44
2022/07/30 09:22:59;;;;;;;9.15;6.07;;;22.90;53.80;;;;;;5023192;28;20450;-43
2022/07/30 09:25:53;;;;;;;5.82;5.13;;;22.90;53.90;;;;;;5023295;28;20053;-49
2022/07/30 09:29:15;;;;;;;4.95;4.55;;;22.90;53.80;;;;;;5021244;28;20055;-46
2022/07/30 09:32:02;;;;;;;;;;;23.00;53.80;;;;;;5026110;28;20053;-45
2022/07/30 09:34:48;;;;;;;5.25;4.32;;;23.00;53.20;;;;;;5023430;28;19927;-47
2022/07/30 09:37:41;;;;;;;4.63;4.15;;;23.10;53.10;;;;;;4993931;28;20064;-43
2022/07/30 09:40:34;;;;;;;5.43;5.03;;;23.10;52.80;;;;;;5025564;28;20056;-48
2022/07/30 09:43:19;;;;;;;6.60;4.88;;;23.20;53.10;;;;;;5033739;28;20049;-47
2022/07/30 09:45:57;;;;;;;5.95;4.95;;;23.20;52.80;;;;;;5030677;28;20049;-48
2022/07/30 09:48:26;;;;;;;6.38;4.75;;;23.30;52.50;;;;;;5019385;28;20041;-46
2022/07/30 09:50:54;;;;;;;6.90;5.80;;;23.30;52.90;;;;;;5010557;28;20042;-45
2022/07/30 09:53:26;;;;;;;8.18;5.15;;;23.30;52.30;;;;;;5020286;28;20481;-46
2022/07/30 09:55:56;;;;;;;6.75;5.25;;;23.40;51.60;;;;;;5018084;28;20041;-46
2022/07/30 09:58:37;;;;;;;4.95;4.03;;;23.40;51.70;;;;;;5011891;28;20041;-46
2022/07/30 10:01:05;;;;;;;6.78;4.10;;;23.50;51.00;;;;;;5020137;28;20044;-47
2022/07/30 10:04:07;;;;;;;6.10;4.90;;;23.50;50.60;;;;;;5048141;28;20059;-46
2022/07/30 10:06:55;;;;;;;7.78;4.43;;;23.60;50.90;;;;;;5030787;28;20414;-46
2022/07/30 10:09:34;;;;;;;4.65;4.03;;;23.70;50.70;;;;;;5016235;28;20136;-46
2022/07/30 10:12:05;;;;;;;5.25;3.78;;;23.70;51.20;;;;;;5019044;28;20069;-45
2022/07/30 10:14:42;;;;;;;3.80;3.42;;;23.70;50.20;;;;;;5032367;28;20037;-47
2022/07/30 10:17:11;;;;;;;8.23;3.75;;;23.80;50.00;;;;;;5007116;28;20037;-47
2022/07/30 10:19:41;;;;;;;5.03;3.97;;;23.80;50.20;;;;;;5037004;28;20033;-48
2022/07/30 10:22:27;;;;;;;5.28;3.97;;;23.80;49.90;;;;;;5039632;28;20055;-45
2022/07/30 10:25:17;;;;;;;4.38;3.50;;;23.90;50.00;;;;;;5049673;28;20143;-44
2022/07/30 10:28:05;;;;;;;5.25;2.65;;;24.00;49.50;;;;;;5031975;28;20187;-49
2022/07/30 10:30:33;;;;;;;5.20;3.83;;;24.00;50.60;;;;;;5022619;28;20037;-46
2022/07/30 10:33:00;;;;;;;5.40;3.40;;;24.00;49.80;;;;;;5036644;28;20418;-48
2022/07/30 10:35:28;;;;;;;3.83;2.70;;;24.00;49.60;;;;;;5028611;28;20044;-48
2022/07/30 10:38:10;;;;;;;5.43;2.97;;;24.10;49.30;;;;;;5032517;28;20038;-46
2022/07/30 10:40:49;;;;;;;4.55;3.60;;;24.20;49.60;;;;;;5041522;28;20047;-50
2022/07/30 10:43:34;;;;;;;5.28;3.03;;;24.30;48.70;;;;;;5042727;28;20040;-46
2022/07/30 10:46:19;;;;;;;5.07;2.50;;;24.30;48.90;;;;;;5031810;28;20045;-46
2022/07/30 10:48:48;;;;;;;4.57;3.17;;;24.40;49.50;;;;;;5025500;28;20112;-47
2022/07/30 10:51:16;;;;;;;5.60;2.60;;;24.50;49.20;;;;;;5032125;28;20572;-48
2022/07/30 10:54:00;;;;;;;9.30;3.42;;;24.50;49.20;;;;;;5013683;28;20087;-46
2022/07/30 10:56:26;;;;;;;2.42;2.22;;;24.60;48.60;;;;;;5029265;28;20374;-46
2022/07/30 10:58:58;;;;;;;3.72;2.22;;;24.70;48.20;;;;;;5028870;28;20037;-46
2022/07/30 11:01:25;;;;;;;2.17;1.98;;;24.70;47.10;;;;;;5029976;28;20034;-45
2022/07/30 11:04:19;;;;;;;5.30;2.28;;;24.80;46.80;;;;;;5039993;28;20497;-45
2022/07/30 11:07:01;;;;;;;2.58;2.40;;;24.90;47.20;;;;;;5041829;28;20045;-50
2022/07/30 11:09:43;;;;;;;2.22;2.03;;;25.00;47.50;;;;;;5038496;28;20103;-47
2022/07/30 11:12:41;;;;;;;2.30;2.17;;;25.00;47.10;;;;;;5052806;28;20029;-46
2022/07/30 11:15:14;;;;;;;5.57;2.50;;;25.20;47.10;;;;;;5041734;28;20065;-46
2022/07/30 11:18:04;;;;;;;2.15;1.70;;;25.30;46.90;;;;;;5029437;28;20079;-48
2022/07/30 11:20:39;;;;;;;2.58;2.05;;;25.30;46.60;;;;;;5030773;28;20053;-48
2022/07/30 11:23:18;;;;;;;2.97;2.13;;;25.40;47.40;;;;;;5030374;28;20629;-46
2022/07/30 11:25:50;;;;;;;4.03;2.10;;;25.50;47.00;;;;;;5043798;28;20037;-46
2022/07/30 11:28:52;;;;;;;2.75;2.55;;;25.60;46.70;;;;;;5036464;28;20037;-49
2022/07/30 11:31:37;;;;;;;4.22;2.17;;;25.70;46.70;;;;;;4989612;28;20045;-45
2022/07/30 11:34:25;;;;;;;3.00;1.73;;;25.80;46.40;;;;;;5037560;28;20048;-47
2022/07/30 11:37:06;;;;;;;2.30;2.13;;;25.80;46.30;;;;;;5035261;28;20037;-45
2022/07/30 11:39:53;;;;;;;2.25;1.33;;;25.80;45.20;;;;;;5029760;28;20095;-49
2022/07/30 11:42:28;;;;;;;3.90;1.55;;;26.00;45.30;;;;;;5028206;28;20123;-47
2022/07/30 11:45:14;;;;;;;1.90;1.67;;;26.10;44.10;;;;;;5045197;28;20029;-48
2022/07/30 11:47:49;;;;;;;3.05;1.67;;;26.20;44.80;;;;;;5030241;28;20041;-47
2022/07/30 11:50:22;;;;;;;3.85;1.55;;;26.20;44.40;;;;;;5025466;28;20774;-45
2022/07/30 11:52:55;;;;;;;1.80;1.38;;;26.30;44.20;;;;;;5036602;28;20032;-46
2022/07/30 11:55:33;;;;;;;;;;;26.30;44.50;;;;;;5030422;28;20037;-47
2022/07/30 11:58:03;;;;;;;2.80;2.05;;;26.50;45.20;;;;;;5032464;28;19925;-45
2022/07/30 12:00:34;;;;;;;1.88;1.73;;;26.60;44.90;;;;;;5027032;28;20050;-46
2022/07/30 12:03:10;;;;;;;3.30;1.33;;;26.60;43.70;;;;;;5034554;28;20041;-45
2022/07/30 12:05:38;;;;;;;1.48;1.38;;;26.70;43.40;;;;;;5044590;28;20440;-49
2022/07/30 12:08:05;;;;;;;4.13;2.25;;;26.70;43.50;;;;;;5052227;28;20551;-48
2022/07/30 12:10:34;;;;;;;2.75;1.38;;;26.80;43.20;;;;;;5066420;22;20045;-46
2022/07/30 12:13:13;;;;;;;6.03;1.95;;;26.80;43.40;;;;;;5032482;28;20037;-48
2022/07/30 12:15:42;;;;;;;1.30;1.20;;;26.80;42.40;;;;;;5033104;28;20041;-46
2022/07/30 12:18:12;;;;;;;1.58;1.00;;;26.80;43.10;;;;;;5027640;28;20505;-51
2022/07/30 12:21:03;;;;;;;1.83;1.45;;;26.90;42.60;;;;;;5036393;28;20052;-48
2022/07/30 12:23:31;;;;;;;1.98;1.35;;;27.00;42.70;;;;;;5043536;28;20041;-50
2022/07/30 12:25:58;;;;;;;1.77;1.30;;;27.00;42.80;;;;;;5052907;28;20044;-49
2022/07/30 12:28:34;;;;;;;2.08;1.60;;;27.10;42.90;;;;;;5033744;28;20041;-50
2022/07/30 12:31:03;;;;;;;1.95;1.45;;;27.20;42.10;;;;;;5032601;28;20100;-49
2022/07/30 12:33:30;;;;;;;2.03;1.60;;;27.20;42.40;;;;;;5028927;28;20099;-50
2022/07/30 12:35:59;;;;;;;1.52;1.42;;;27.30;42.00;;;;;;5031515;28;20038;-51
2022/07/30 12:38:27;;;;;;;2.05;1.25;;;27.40;41.80;;;;;;5030122;28;20096;-50
2022/07/30 12:41:03;;;;;;;1.73;1.25;;;27.50;41.70;;;;;;5032637;28;20107;-48
2022/07/30 12:43:53;;;;;;;2.03;1.77;;;27.60;41.90;;;;;;5038024;28;20045;-49
2022/07/30 12:46:25;;;;;;;2.72;1.50;;;27.70;41.60;;;;;;5035152;28;20052;-47
2022/07/30 12:49:01;;;;;;;1.90;1.52;;;27.70;41.20;;;;;;5011370;28;20049;-49
2022/07/30 12:51:52;;;;;;;1.70;1.55;;;27.90;41.60;;;;;;5031457;28;20078;-47
2022/07/30 12:54:27;;;;;;;1.50;1.40;;;28.00;41.90;;;;;;5025545;28;20455;-49
2022/07/30 12:57:02;;;;;;;1.65;1.05;;;28.10;41.50;;;;;;5025671;28;20502;-49
2022/07/30 12:59:31;;;;;;;1.63;1.42;;;28.30;41.30;;;;;;5042580;28;20041;-49
2022/07/30 13:02:01;;;;;;;2.83;1.30;;;28.40;40.70;;;;;;5041293;28;20398;-48
2022/07/30 13:04:28;;;;;;;1.23;1.10;;;28.60;40.80;;;;;;5030674;28;20099;-51
2022/07/30 13:07:02;;;;;;;3.30;1.55;;;28.80;40.60;;;;;;5025072;28;20049;-49
2022/07/30 13:09:33;;;;;;;2.05;1.55;;;28.90;40.30;;;;;;5031206;28;20079;-48
2022/07/30 13:12:00;;;;;;;2.15;1.25;;;29.20;40.60;;;;;;5041460;28;20488;-49
2022/07/30 13:14:26;;;;;;;2.20;1.77;;;29.30;40.10;;;;;;5031297;28;20102;-47
2022/07/30 13:16:55;;;;;;;3.50;1.30;;;29.50;39.60;;;;;;5028248;28;20083;-50
2022/07/30 13:19:24;;;;;;;3.05;1.25;;;29.70;39.20;;;;;;5037937;28;20041;-51
2022/07/30 13:21:51;;;;;;;2.90;1.50;;;29.80;39.30;;;;;;5047578;28;20045;-48
2022/07/30 13:24:18;;;;;;;1.42;1.20;;;29.90;39.10;;;;;;5050815;28;20071;-49
2022/07/30 13:26:47;;;;;;;1.95;1.48;;;30.00;38.50;;;;;;5033673;28;20032;-49
2022/07/30 13:29:16;;;;;;;1.52;1.33;;;30.20;38.10;;;;;;5042295;28;20083;-50